Terminal Aerodrome Forecast
Issued by NWS

Home | Current Version | Previous Version | Graphics & Text | Print | Product List | Glossary On
Versions: 1 2 3 4 5 6 7 8 9 10 11 12 13 14
000
FTUS43 KBIS 251135 AAC
TAFDIK
TAF AMD
KDIK 251135Z 2512/2612 18015G25KT P6SM BKN150
     FM252000 25007KT P6SM BKN150
     FM260000 32006KT P6SM -SHRA OVC060
     FM260500 31005KT P6SM OVC035=

USA.gov is the U.S. government's official web portal to all federal, state and local government web resources and services.